createdAt,value
2022-08-08T00:02:31.400Z,0.82
2022-08-08T00:05:03.306Z,0.65
2022-08-08T00:07:44.459Z,0.70
2022-08-08T00:10:28.198Z,0.77
2022-08-08T00:13:20.834Z,0.60
2022-08-08T00:16:09.358Z,0.80
2022-08-08T00:18:52.669Z,0.60
2022-08-08T00:21:29.864Z,0.60
2022-08-08T00:24:16.507Z,0.68
2022-08-08T00:26:51.673Z,0.70
2022-08-08T00:29:45.799Z,0.63
2022-08-08T00:32:34.471Z,0.80
2022-08-08T00:35:20.986Z,0.50
2022-08-08T00:38:03.222Z,0.60
2022-08-08T00:41:10.840Z,0.70
2022-08-08T00:43:56.075Z,0.65
2022-08-08T00:46:32.224Z,0.70
2022-08-08T00:49:25.063Z,0.60
2022-08-08T00:52:20.264Z,0.60
2022-08-08T00:55:10.614Z,0.80
2022-08-08T00:58:22.808Z,0.75
2022-08-08T01:01:19.558Z,0.60
2022-08-08T01:04:14.733Z,0.73
2022-08-08T01:07:23.948Z,0.50
2022-08-08T01:10:13.468Z,0.50
2022-08-08T01:13:10.903Z,0.60
2022-08-08T01:15:59.965Z,0.60
2022-08-08T01:18:52.655Z,0.70
2022-08-08T01:22:11.731Z,0.60
2022-08-08T01:24:57.122Z,0.85
2022-08-08T01:27:44.048Z,0.57
2022-08-08T01:30:39.051Z,0.52
2022-08-08T01:33:54.076Z,0.70
2022-08-08T01:36:48.449Z,0.50
2022-08-08T01:39:35.139Z,0.60
2022-08-08T01:42:11.206Z,0.50
2022-08-08T01:45:13.943Z,0.60
2022-08-08T01:48:16.268Z,0.70
2022-08-08T01:51:32.045Z,0.70
2022-08-08T01:55:19.034Z,0.60
2022-08-08T01:57:25.974Z,0.70
2022-08-08T02:00:18.438Z,0.75
2022-08-08T02:02:50.559Z,0.70
2022-08-08T02:05:56.261Z,0.70
2022-08-08T02:08:47.197Z,0.60
2022-08-08T02:11:52.819Z,0.60
2022-08-08T02:14:55.752Z,0.65
2022-08-08T02:17:42.878Z,0.33
2022-08-08T02:21:03.213Z,0.70
2022-08-08T02:23:18.571Z,0.68
2022-08-08T02:25:58.933Z,0.65
2022-08-08T02:28:48.603Z,0.80
2022-08-08T02:32:01.237Z,0.70
2022-08-08T02:35:07.951Z,1.02
2022-08-08T02:38:09.235Z,0.88
2022-08-08T02:41:03.475Z,0.70
2022-08-08T02:44:37.770Z,0.80
2022-08-08T02:46:58.198Z,0.80
2022-08-08T02:49:54.283Z,0.70
2022-08-08T02:52:50.555Z,0.73
2022-08-08T02:55:31.962Z,0.70
2022-08-08T02:58:37.656Z,0.60
2022-08-08T03:01:32.653Z,0.60
2022-08-08T03:05:04.759Z,0.70
2022-08-08T03:07:57.967Z,0.77
2022-08-08T03:10:33.020Z,0.50
2022-08-08T03:15:54.331Z,0.80
2022-08-08T03:16:34.222Z,0.50
2022-08-08T03:19:17.870Z,0.63
2022-08-08T03:21:58.670Z,0.60
2022-08-08T03:24:31.115Z,0.77
2022-08-08T03:27:04.920Z,0.73
2022-08-08T03:29:56.368Z,0.70
2022-08-08T03:32:42.035Z,0.52
2022-08-08T03:35:18.924Z,0.40
2022-08-08T03:38:54.116Z,0.50
2022-08-08T03:40:36.111Z,0.70
2022-08-08T03:43:16.661Z,0.60
2022-08-08T03:46:06.016Z,0.60
2022-08-08T03:49:09.417Z,0.50
2022-08-08T03:51:40.113Z,0.50
2022-08-08T03:54:15.371Z,0.90
2022-08-08T03:58:30.317Z,0.80
2022-08-08T04:00:02.453Z,0.60
2022-08-08T04:02:36.806Z,0.63
2022-08-08T04:05:19.236Z,0.57
2022-08-08T04:07:49.119Z,0.57
2022-08-08T04:10:20.027Z,0.50
2022-08-08T04:12:48.592Z,0.60
2022-08-08T04:15:16.522Z,0.73
2022-08-08T04:17:58.238Z,0.60
2022-08-08T04:20:28.252Z,0.60
2022-08-08T04:23:00.104Z,0.80
2022-08-08T04:25:38.195Z,0.70
2022-08-08T04:28:34.341Z,0.60
2022-08-08T04:30:57.722Z,0.60
2022-08-08T04:33:24.260Z,0.80
2022-08-08T04:35:53.461Z,0.90
2022-08-08T04:38:24.882Z,0.80
2022-08-08T04:40:57.019Z,0.70
2022-08-08T04:43:31.948Z,0.60
2022-08-08T04:46:14.653Z,0.70
2022-08-08T04:48:41.490Z,0.60
2022-08-08T04:51:12.016Z,0.90
2022-08-08T04:53:52.173Z,0.53
2022-08-08T04:56:21.987Z,0.63
2022-08-08T04:58:50.678Z,0.80
2022-08-08T05:01:17.566Z,0.70
2022-08-08T05:04:09.291Z,0.80
2022-08-08T05:06:31.206Z,0.87
2022-08-08T05:09:02.171Z,0.53
2022-08-08T05:11:38.759Z,0.60
2022-08-08T05:14:06.739Z,0.90
2022-08-08T05:16:47.767Z,0.80
2022-08-08T05:20:11.366Z,1.00
2022-08-08T05:22:11.477Z,0.80
2022-08-08T05:24:38.936Z,0.80
2022-08-08T05:27:06.749Z,0.50
2022-08-08T05:29:36.699Z,0.60
2022-08-08T05:32:08.055Z,0.73
2022-08-08T05:34:50.647Z,0.67
2022-08-08T05:37:19.742Z,0.70
2022-08-08T05:39:49.493Z,0.70
2022-08-08T05:42:15.995Z,1.00
2022-08-08T05:44:52.287Z,0.75
2022-08-08T05:47:23.112Z,0.80
2022-08-08T05:49:54.141Z,1.00
2022-08-08T05:52:35.523Z,1.05
2022-08-08T05:55:09.980Z,1.00
2022-08-08T05:58:04.465Z,1.10
2022-08-08T06:00:28.563Z,1.33
2022-08-08T06:03:17.289Z,1.23
2022-08-08T06:06:06.574Z,1.20
2022-08-08T06:08:54.902Z,2.13
2022-08-08T06:11:22.340Z,1.75
2022-08-08T06:13:57.359Z,1.20
2022-08-08T06:16:27.544Z,1.80
2022-08-08T06:18:59.778Z,1.40
2022-08-08T06:21:33.022Z,1.63
2022-08-08T06:24:22.794Z,1.42
2022-08-08T06:27:12.537Z,1.10
2022-08-08T06:30:00.858Z,1.27
2022-08-08T06:32:31.421Z,1.55
2022-08-08T06:35:30.752Z,1.55
2022-08-08T06:37:59.372Z,1.35
2022-08-08T06:40:29.740Z,1.20
2022-08-08T06:43:09.584Z,1.42
2022-08-08T06:45:39.453Z,1.80
2022-08-08T06:48:07.116Z,1.38
2022-08-08T06:50:38.577Z,1.08
2022-08-08T06:53:13.935Z,1.38
2022-08-08T06:55:47.437Z,1.58
2022-08-08T06:58:34.064Z,3.88
2022-08-08T07:02:16.456Z,1.42
2022-08-08T07:04:40.100Z,1.02
2022-08-08T07:06:48.024Z,1.27
2022-08-08T07:09:21.851Z,1.20
2022-08-08T07:11:55.039Z,1.10
2022-08-08T07:14:27.874Z,1.17
2022-08-08T07:17:09.165Z,1.27
2022-08-08T07:19:48.066Z,1.17
2022-08-08T07:22:22.249Z,1.67
2022-08-08T07:24:57.408Z,1.42
2022-08-08T07:27:47.263Z,1.40
2022-08-08T07:30:25.562Z,1.45
2022-08-08T07:32:53.025Z,1.42
2022-08-08T07:35:19.525Z,1.30
2022-08-08T07:37:55.806Z,1.33
2022-08-08T07:40:33.035Z,1.27
2022-08-08T07:43:04.119Z,1.50
2022-08-08T07:45:51.506Z,1.25
2022-08-08T07:48:21.842Z,1.45
2022-08-08T07:50:51.895Z,1.23
2022-08-08T07:54:00.678Z,1.00
2022-08-08T07:56:13.172Z,1.25
2022-08-08T07:58:44.139Z,1.23
2022-08-08T08:01:20.429Z,1.00
2022-08-08T08:04:07.054Z,1.17
2022-08-08T08:06:41.835Z,1.33
2022-08-08T08:09:13.224Z,1.42
2022-08-08T08:11:53.839Z,1.02
2022-08-08T08:14:32.386Z,1.00
2022-08-08T08:16:59.673Z,1.00
2022-08-08T08:19:31.961Z,1.00
2022-08-08T08:22:16.049Z,1.40
2022-08-08T08:24:52.021Z,0.90
2022-08-08T08:27:19.912Z,1.40
2022-08-08T08:29:51.000Z,1.25
2022-08-08T08:32:31.805Z,1.40
2022-08-08T08:35:04.629Z,1.08
2022-08-08T08:37:32.180Z,1.30
2022-08-08T08:40:00.853Z,1.33
2022-08-08T08:42:35.635Z,1.25
2022-08-08T08:45:10.129Z,1.02
2022-08-08T08:47:55.065Z,1.38
2022-08-08T08:50:33.821Z,1.13
2022-08-08T08:53:28.016Z,1.30
2022-08-08T08:56:02.188Z,1.20
2022-08-08T08:58:42.287Z,1.20
2022-08-08T09:01:14.699Z,1.00
2022-08-08T09:03:47.372Z,1.25
2022-08-08T09:06:34.155Z,1.25
2022-08-08T09:09:26.661Z,0.98
2022-08-08T09:12:06.517Z,1.30
2022-08-08T09:14:35.256Z,1.10
2022-08-08T09:17:11.582Z,0.90
2022-08-08T09:21:58.130Z,1.20
2022-08-08T09:22:29.862Z,1.20
2022-08-08T09:24:58.581Z,1.10
2022-08-08T09:27:41.791Z,1.00
2022-08-08T09:30:17.406Z,1.17
2022-08-08T09:33:12.640Z,1.08
2022-08-08T09:35:49.803Z,1.10
2022-08-08T09:38:36.048Z,1.30
2022-08-08T09:42:13.961Z,1.00
2022-08-08T09:44:34.406Z,1.30
2022-08-08T09:47:27.652Z,1.30
2022-08-08T09:49:58.870Z,0.85
2022-08-08T09:53:00.316Z,0.90
2022-08-08T09:55:31.254Z,1.00
2022-08-08T09:58:08.108Z,1.40
2022-08-08T10:00:50.013Z,1.30
2022-08-08T10:03:24.787Z,1.23
2022-08-08T10:05:51.298Z,0.93
2022-08-08T10:08:17.846Z,1.23
2022-08-08T10:10:51.362Z,1.10
2022-08-08T10:13:25.962Z,1.20
2022-08-08T10:16:05.495Z,1.40
2022-08-08T10:18:34.371Z,1.60
2022-08-08T10:21:26.050Z,1.38
2022-08-08T10:24:04.077Z,1.33
2022-08-08T10:26:57.455Z,1.10
2022-08-08T10:29:56.594Z,0.90
2022-08-08T10:32:37.473Z,0.85
2022-08-08T10:35:20.329Z,1.10
2022-08-08T10:38:05.248Z,1.00
2022-08-08T10:40:33.018Z,0.93
2022-08-08T10:43:01.684Z,1.00
2022-08-08T10:45:29.644Z,0.90
2022-08-08T10:48:05.446Z,1.25
2022-08-08T10:50:38.604Z,1.13
2022-08-08T10:53:12.957Z,1.67
2022-08-08T10:55:46.438Z,1.77
2022-08-08T10:58:16.086Z,1.10
2022-08-08T11:00:48.465Z,0.98
2022-08-08T11:03:36.904Z,0.93
2022-08-08T11:06:12.677Z,1.00
2022-08-08T11:08:53.466Z,1.20
2022-08-08T11:11:32.559Z,1.30
2022-08-08T11:14:15.838Z,1.33
2022-08-08T11:16:46.667Z,1.60
2022-08-08T11:19:15.637Z,1.60
2022-08-08T11:21:56.306Z,1.38
2022-08-08T11:24:25.576Z,1.40
2022-08-08T11:26:56.275Z,1.27
2022-08-08T11:29:41.416Z,1.00
2022-08-08T11:32:13.355Z,0.98
2022-08-08T11:35:05.726Z,0.75
2022-08-08T11:38:34.329Z,0.70
2022-08-08T11:40:16.650Z,1.05
2022-08-08T11:42:53.659Z,0.88
2022-08-08T11:45:21.835Z,0.90
2022-08-08T11:48:04.672Z,0.80
2022-08-08T11:50:33.872Z,0.90
2022-08-08T11:53:06.116Z,1.25
2022-08-08T11:55:47.079Z,1.10
2022-08-08T11:58:17.141Z,1.20
2022-08-08T12:00:46.094Z,1.13
2022-08-08T12:03:30.893Z,1.15
2022-08-08T12:06:11.158Z,0.80
2022-08-08T12:08:42.185Z,1.20
2022-08-08T12:11:23.302Z,1.13
2022-08-08T12:14:07.817Z,1.00
2022-08-08T12:16:48.940Z,1.00
2022-08-08T12:19:15.727Z,0.90
2022-08-08T12:22:00.296Z,1.20
2022-08-08T12:24:42.472Z,1.20
2022-08-08T12:27:18.788Z,1.58
2022-08-08T12:29:55.221Z,1.10
2022-08-08T12:32:22.511Z,0.90
2022-08-08T12:35:04.454Z,0.90
2022-08-08T12:37:41.524Z,1.00
2022-08-08T12:40:24.189Z,1.10
2022-08-08T12:42:52.246Z,0.90
2022-08-08T12:45:58.581Z,1.10
2022-08-08T12:48:37.549Z,1.10
2022-08-08T12:51:05.827Z,1.25
2022-08-08T12:54:00.564Z,1.23
2022-08-08T12:56:43.074Z,1.02
2022-08-08T12:59:27.129Z,1.20
2022-08-08T13:01:55.985Z,1.02
2022-08-08T13:04:28.424Z,1.10
2022-08-08T13:07:03.271Z,1.20
2022-08-08T13:10:00.789Z,1.20
2022-08-08T13:12:46.698Z,1.00
2022-08-08T13:15:20.152Z,0.98
2022-08-08T13:17:54.841Z,0.70
2022-08-08T13:20:44.802Z,0.80
2022-08-08T13:23:36.884Z,1.10
2022-08-08T13:26:13.358Z,1.02
2022-08-08T13:28:45.777Z,1.10
2022-08-08T13:31:16.457Z,0.90
2022-08-08T13:33:50.830Z,1.17
2022-08-08T13:36:26.361Z,0.90
2022-08-08T13:38:53.589Z,0.85
2022-08-08T13:41:22.605Z,0.90
2022-08-08T13:43:51.913Z,1.00
2022-08-08T13:46:26.433Z,0.77
2022-08-08T13:49:11.410Z,1.05
2022-08-08T13:52:11.760Z,1.00
2022-08-08T13:54:50.462Z,0.95
2022-08-08T13:57:19.039Z,1.13
2022-08-08T14:00:16.612Z,1.00
2022-08-08T14:02:43.238Z,0.73
2022-08-08T14:05:20.215Z,1.10
2022-08-08T14:07:52.358Z,0.90
2022-08-08T14:10:33.675Z,0.90
2022-08-08T14:13:31.100Z,1.20
2022-08-08T14:16:16.195Z,1.17
2022-08-08T14:19:03.056Z,1.10
2022-08-08T14:21:48.817Z,1.00
2022-08-08T14:24:34.537Z,1.00
2022-08-08T14:27:07.884Z,1.00
2022-08-08T14:29:39.519Z,0.90
2022-08-08T14:32:11.628Z,0.80
2022-08-08T14:34:39.943Z,0.90
2022-08-08T14:37:12.679Z,0.90
2022-08-08T14:39:49.402Z,1.00
2022-08-08T14:42:24.686Z,0.90
2022-08-08T14:44:55.638Z,1.05
2022-08-08T14:47:22.198Z,0.90
2022-08-08T14:50:02.431Z,1.00
2022-08-08T14:52:46.535Z,1.13
2022-08-08T14:55:16.383Z,1.02
2022-08-08T14:58:02.678Z,1.13
2022-08-08T15:00:37.543Z,1.10
2022-08-08T15:03:14.733Z,1.10
2022-08-08T15:05:54.095Z,1.20
2022-08-08T15:08:35.712Z,1.15
2022-08-08T15:11:11.388Z,1.15
2022-08-08T15:14:02.795Z,1.10
2022-08-08T15:16:28.242Z,0.88
2022-08-08T15:18:55.164Z,1.00
2022-08-08T15:21:21.658Z,1.00
2022-08-08T15:23:52.163Z,0.90
2022-08-08T15:26:20.025Z,1.38
2022-08-08T15:28:51.021Z,1.00
2022-08-08T15:31:25.828Z,1.00
2022-08-08T15:34:18.548Z,0.98
2022-08-08T15:36:54.823Z,1.05
2022-08-08T15:39:23.573Z,1.10
2022-08-08T15:41:55.006Z,1.00
2022-08-08T15:44:23.765Z,1.00
2022-08-08T15:46:53.208Z,0.90
2022-08-08T15:49:22.375Z,0.85
2022-08-08T15:51:50.120Z,0.80
2022-08-08T15:54:18.992Z,0.98
2022-08-08T15:57:04.568Z,0.85
2022-08-08T16:00:06.177Z,0.90
2022-08-08T16:02:31.228Z,1.13
2022-08-08T16:04:59.945Z,1.02
2022-08-08T16:07:39.448Z,0.80
2022-08-08T16:13:09.810Z,1.08
2022-08-08T16:13:27.839Z,0.98
2022-08-08T16:15:59.285Z,1.00
2022-08-08T16:18:29.777Z,0.80
2022-08-08T16:21:00.339Z,0.90
2022-08-08T16:23:31.591Z,0.80
2022-08-08T16:26:03.985Z,0.95
2022-08-08T16:28:35.545Z,0.98
2022-08-08T16:31:08.085Z,0.95
2022-08-08T16:33:39.371Z,0.80
2022-08-08T16:36:09.566Z,0.90
2022-08-08T16:38:40.545Z,1.10
2022-08-08T16:41:20.052Z,1.08
2022-08-08T16:43:51.539Z,0.90
2022-08-08T16:46:43.316Z,0.85
2022-08-08T16:49:10.713Z,0.90
2022-08-08T16:55:01.631Z,0.90
2022-08-08T16:55:19.496Z,1.02
2022-08-08T16:58:14.114Z,0.90
2022-08-08T17:00:26.911Z,1.05
2022-08-08T17:02:53.667Z,0.77
2022-08-08T17:05:22.638Z,0.80
2022-08-08T17:08:02.609Z,1.00
2022-08-08T17:10:29.010Z,0.70
2022-08-08T17:12:57.613Z,1.00
2022-08-08T17:15:26.336Z,1.00
2022-08-08T17:18:04.129Z,1.15
2022-08-08T17:20:38.072Z,1.02
2022-08-08T17:23:18.479Z,0.70
2022-08-08T17:25:55.781Z,1.00
2022-08-08T17:28:34.632Z,0.75
2022-08-08T17:31:39.490Z,0.90
2022-08-08T17:34:53.069Z,0.82
2022-08-08T17:36:44.208Z,0.63
2022-08-08T17:40:02.890Z,0.80
2022-08-08T17:42:17.996Z,0.70
2022-08-08T17:44:45.465Z,0.80
2022-08-08T17:47:23.335Z,0.85
2022-08-08T17:50:01.433Z,0.90
2022-08-08T17:52:34.181Z,0.70
2022-08-08T17:55:05.183Z,1.00
2022-08-08T17:57:36.073Z,1.00
2022-08-08T18:00:19.694Z,0.80
2022-08-08T18:03:07.473Z,0.80
2022-08-08T18:05:49.864Z,1.13
2022-08-08T18:08:38.229Z,0.70
2022-08-08T18:11:16.954Z,0.77
2022-08-08T18:13:47.036Z,0.65
2022-08-08T18:16:17.031Z,0.70
2022-08-08T18:18:53.880Z,0.80
2022-08-08T18:22:00.055Z,0.55
2022-08-08T18:24:21.449Z,0.80
2022-08-08T18:26:53.707Z,0.70
2022-08-08T18:29:27.241Z,0.90
2022-08-08T18:31:59.786Z,0.90
2022-08-08T18:34:29.413Z,0.80
2022-08-08T18:37:04.592Z,0.70
2022-08-08T18:39:35.636Z,0.60
2022-08-08T18:42:04.210Z,1.25
2022-08-08T18:44:34.533Z,0.70
2022-08-08T18:47:01.689Z,1.05
2022-08-08T18:49:32.510Z,1.40
2022-08-08T18:52:18.509Z,0.75
2022-08-08T18:54:59.196Z,0.60
2022-08-08T18:57:28.682Z,0.70
2022-08-08T19:00:02.552Z,0.93
2022-08-08T19:02:29.839Z,0.90
2022-08-08T19:04:56.514Z,0.80
2022-08-08T19:07:25.576Z,1.00
2022-08-08T19:10:14.665Z,0.85
2022-08-08T19:12:44.799Z,0.90
2022-08-08T19:15:21.785Z,0.80
2022-08-08T19:18:33.391Z,0.85
2022-08-08T19:20:46.694Z,0.98
2022-08-08T19:23:16.679Z,0.60
2022-08-08T19:26:26.916Z,0.47
2022-08-08T19:28:36.624Z,0.50
2022-08-08T19:31:09.179Z,0.65
2022-08-08T19:33:52.264Z,0.70
2022-08-08T19:36:28.267Z,0.80
2022-08-08T19:38:58.178Z,0.63
2022-08-08T19:41:33.577Z,0.60
2022-08-08T19:44:03.304Z,1.00
2022-08-08T19:46:33.819Z,0.75
2022-08-08T19:49:03.515Z,0.90
2022-08-08T19:51:39.635Z,0.77
2022-08-08T19:54:10.032Z,0.73
2022-08-08T19:56:40.179Z,0.65
2022-08-08T19:59:12.365Z,0.70
2022-08-08T20:02:01.066Z,0.60
2022-08-08T20:04:29.724Z,0.60
2022-08-08T20:07:03.537Z,0.70
2022-08-08T20:09:55.619Z,0.70
2022-08-08T20:12:32.535Z,0.50
2022-08-08T20:15:15.109Z,0.60
2022-08-08T20:17:49.435Z,0.60
2022-08-08T20:20:19.544Z,0.60
2022-08-08T20:22:52.440Z,0.68
2022-08-08T20:25:22.419Z,0.50
2022-08-08T20:27:53.882Z,0.88
2022-08-08T20:30:52.456Z,0.57
2022-08-08T20:33:20.011Z,0.60
2022-08-08T20:35:58.880Z,0.43
2022-08-08T20:38:32.114Z,0.60
2022-08-08T20:41:15.364Z,0.50
2022-08-08T20:43:49.922Z,0.70
2022-08-08T20:46:20.997Z,0.63
2022-08-08T20:48:51.013Z,0.70
2022-08-08T20:51:18.211Z,0.55
2022-08-08T20:54:01.131Z,0.60
2022-08-08T20:56:35.594Z,0.47
2022-08-08T20:59:05.778Z,0.60
2022-08-08T21:02:05.629Z,0.60
2022-08-08T21:04:23.256Z,0.65
2022-08-08T21:06:52.954Z,0.47
2022-08-08T21:09:21.725Z,0.52
2022-08-08T21:12:03.339Z,0.70
2022-08-08T21:14:34.526Z,0.60
2022-08-08T21:17:06.166Z,0.77
2022-08-08T21:19:44.251Z,0.60
2022-08-08T21:22:13.748Z,0.85
2022-08-08T21:24:53.008Z,0.80
2022-08-08T21:28:05.700Z,0.60
2022-08-08T21:30:19.157Z,0.60
2022-08-08T21:32:51.694Z,0.60
2022-08-08T21:36:14.350Z,0.57
2022-08-08T21:38:11.995Z,0.60
2022-08-08T21:40:55.221Z,0.60
2022-08-08T21:43:24.988Z,0.70
2022-08-08T21:48:01.348Z,0.80
2022-08-08T21:48:44.576Z,0.57
2022-08-08T21:51:16.049Z,0.80
2022-08-08T21:54:33.970Z,0.73
2022-08-08T21:56:43.597Z,0.60
2022-08-08T21:59:17.351Z,0.70
2022-08-08T22:01:52.017Z,0.70
2022-08-08T22:04:24.714Z,0.68
2022-08-08T22:06:54.421Z,0.70
2022-08-08T22:09:26.961Z,0.60
2022-08-08T22:12:09.614Z,0.68
2022-08-08T22:14:38.786Z,0.65
2022-08-08T22:17:11.649Z,0.43
2022-08-08T22:20:10.825Z,0.80
2022-08-08T22:22:29.142Z,0.60
2022-08-08T22:24:57.320Z,0.70
2022-08-08T22:27:38.883Z,0.60
2022-08-08T22:30:13.434Z,0.60
2022-08-08T22:32:42.869Z,0.55
2022-08-08T22:35:15.737Z,0.50
2022-08-08T22:37:54.022Z,0.50
2022-08-08T22:40:21.114Z,0.65
2022-08-08T22:42:50.597Z,0.52
2022-08-08T22:45:17.699Z,0.68
2022-08-08T22:47:48.539Z,0.80
2022-08-08T22:50:25.798Z,0.50
2022-08-08T22:54:33.908Z,0.45
2022-08-08T22:55:59.308Z,0.60
2022-08-08T22:58:29.213Z,0.52
2022-08-08T23:01:00.439Z,0.50
2022-08-08T23:03:34.453Z,0.60
2022-08-08T23:06:19.464Z,0.50
2022-08-08T23:08:55.395Z,1.02
2022-08-08T23:11:31.304Z,0.50
2022-08-08T23:14:12.240Z,0.57
2022-08-08T23:16:43.366Z,0.50
2022-08-08T23:19:13.602Z,0.52
2022-08-08T23:21:47.027Z,0.60
2022-08-08T23:24:22.919Z,0.70
2022-08-08T23:26:53.417Z,0.52
2022-08-08T23:29:23.886Z,0.77
2022-08-08T23:31:50.337Z,0.50
2022-08-08T23:34:19.909Z,0.50
2022-08-08T23:36:56.483Z,0.60
2022-08-08T23:39:32.391Z,0.65
2022-08-08T23:42:08.950Z,0.47
2022-08-08T23:44:38.523Z,0.60
2022-08-08T23:49:00.409Z,0.55
2022-08-08T23:50:03.078Z,0.50
2022-08-08T23:52:34.358Z,0.60
2022-08-08T23:55:14.745Z,0.73
2022-08-08T23:57:52.930Z,0.60
